New Durham, NH (03855)

9:06 PM EDT on September 01, 2015 (GMT -0400)
Hornetown | | Change Station
CLOSE
Current Station
Personal Weather Station
Location: Farmington, NH
Elevation: 750 ft
Nearby Weather Stations

Elev 750 ft 43.38 °N, 71.13 °W | Updated 10 seconds ago

Clear
Clear
61.2 °F
Feels Like 61.2 °F
N
0.0
Wind Variable Wind from ESE
Gusts 0.0 mph

Today
High -- | Low -- °F
--% Chance of Precip.
Yesterday
High -- | Low -- °F
Precip. -- in
6:08 AM 7:20 PM
Waning Gibbous, 85% visible
Pressure 30.03 in
Visibility 10.0 miles
Clouds Clear
Dew Point 60 °F
Humidity 95%
Rainfall 0.00 in
Snow Depth Not available.
UV 0 out of 12
Pollen 7.90 out of 12
Air Quality Not available.
Flu Activity Not available.
METAR KDAW 020051Z AUTO 00000KT 10SM CLR 18/14 A3004 RMK AO2 SLP167 T01780144
Pressure 30.03 in
Visibility 10.0 miles
Clouds Clear
Dew Point 60 °F
Humidity 95%
Rainfall 0.00 in
Snow Depth Not available.
UV 0 out of 12
Pollen 7.90 out of 12
Air Quality Not available.
Flu Activity Not available.
METAR KDAW 020051Z AUTO 00000KT 10SM CLR 18/14 A3004 RMK AO2 SLP167 T01780144

10-Day Weather Forecast

×

Almanac

Astronomy

Sep. 01, 2015 Rise Set
Actual Time
Civil Twilight
Nautical Twilight
Astronomical Twilight
Moon
Length of Visible Light
Length of Day
Tomorrow will be .
, % of the Moon is Illuminated

Today's Extremes

State Highs State Lows

Community

WunderPhotos

Upload Photos

1,851,663 photos uploaded!

WunderBlogs® & News

Nearby

Air Quality

  Air Quality AQ Index Pollutant
Not available.

Snow Depth

Station Depth Elevation

Earthquake Activity

City Distance Mag. Time & Date
Minimum magnitude displayed is 2.5.

Coastal Water Temperatures

Place Temperature

Stations

Nearby Weather Stations

Station Location Temp. Windchill Dew Point Humidity Wind Precip. Elev Updated Type